Time;durP1;ratioP1;P1;durP2;ratioP2;P2;SDS_P1;SDS_P2;PMS_P1;PMS_P2;Temp;Humidity;BMP_temperature;BMP_pressure;BME280_temperature;BME280_humidity;BME280_pressure;Samples;Min_cycle;Max_cycle;Signal;HPM_P1;HPM_P2
2021/04/12 00:02:16;;;;;;;5.55;0.80;;;;;;;3.92;71.20;102291.19;5049780;28;20448;-53
2021/04/12 00:04:49;;;;;;;3.33;0.70;;;;;;;3.88;71.06;102286.31;5052888;28;20090;-50
2021/04/12 00:07:21;;;;;;;2.15;0.40;;;;;;;3.85;71.09;102287.59;5038478;28;20033;-52
2021/04/12 00:09:53;;;;;;;1.02;0.30;;;;;;;3.84;70.96;102290.56;5053102;28;20114;-55
2021/04/12 00:12:26;;;;;;;3.85;0.50;;;;;;;3.79;71.05;102294.88;5051867;28;20490;-52
2021/04/12 00:14:57;;;;;;;4.50;0.50;;;;;;;3.78;70.97;102295.09;5053762;28;20712;-53
2021/04/12 00:17:30;;;;;;;5.43;0.47;;;;;;;3.78;71.04;102295.94;5042621;28;20449;-48
2021/04/12 00:20:07;;;;;;;2.15;0.40;;;;;;;3.77;71.00;102299.75;5053584;28;20465;-53
2021/04/12 00:22:36;;;;;;;3.58;0.52;;;;;;;3.75;71.01;102293.59;5042674;28;20132;-50
2021/04/12 00:25:09;;;;;;;4.07;0.60;;;;;;;3.76;71.10;102298.06;5053667;28;20464;-49
2021/04/12 00:27:40;;;;;;;3.92;0.40;;;;;;;3.76;71.16;102298.06;5046922;28;20409;-52
2021/04/12 00:30:16;;;;;;;3.75;0.60;;;;;;;3.77;71.29;102298.91;5034253;28;20045;-53
2021/04/12 00:32:48;;;;;;;3.03;0.40;;;;;;;3.78;71.40;102298.69;5040189;28;20631;-52
2021/04/12 00:35:20;;;;;;;3.17;0.55;;;;;;;3.80;71.37;102293.78;5054334;28;20053;-54
2021/04/12 00:37:52;;;;;;;5.15;0.60;;;;;;;3.81;71.29;102292.72;5039350;28;20453;-53
2021/04/12 00:40:29;;;;;;;3.75;0.50;;;;;;;3.81;71.08;102297.38;5053577;28;20049;-51
2021/04/12 00:43:17;;;;;;;3.50;0.68;;;;;;;3.81;70.96;102294.63;5039077;28;20454;-52
2021/04/12 00:45:59;;;;;;;3.42;0.32;;;;;;;3.81;71.04;102300.16;5052716;28;20045;-50
2021/04/12 00:49:01;;;;;;;5.67;0.40;;;;;;;3.84;71.32;102301.63;5041841;28;20387;-50
2021/04/12 00:51:42;;;;;;;2.57;0.40;;;;;;;3.83;71.08;102306.28;5051244;28;20072;-49
2021/04/12 00:54:28;;;;;;;1.55;0.30;;;;;;;3.86;71.08;102299.50;5044130;28;20327;-48
2021/04/12 00:57:01;;;;;;;3.05;0.50;;;;;;;3.92;71.16;102295.88;5037299;28;20413;-50
2021/04/12 00:59:35;;;;;;;;;;;;;;;3.95;71.85;102303.72;5043316;28;20120;-52
2021/04/12 01:02:18;;;;;;;3.65;0.40;;;;;;;3.99;71.59;102308.59;5050524;28;19920;-48
2021/04/12 01:04:57;;;;;;;2.65;0.40;;;;;;;4.06;71.51;102303.84;5042501;28;20060;-48
2021/04/12 01:07:51;;;;;;;4.47;0.82;;;;;;;4.08;71.37;102311.91;5049889;28;20098;-53
2021/04/12 01:10:34;;;;;;;4.78;0.50;;;;;;;4.07;71.48;102312.97;5046509;28;20060;-52
2021/04/12 01:13:31;;;;;;;4.03;0.43;;;;;;;4.06;71.35;102311.28;5041928;28;20387;-49
2021/04/12 01:16:24;;;;;;;3.25;0.40;;;;;;;4.03;71.43;102311.72;5033672;28;20048;-50
2021/04/12 01:19:12;;;;;;;3.08;0.43;;;;;;;3.97;71.53;102310.72;5048155;28;20095;-49
2021/04/12 01:22:35;;;;;;;2.35;0.35;;;;;;;3.96;71.71;102310.94;5032643;28;20053;-54
2021/04/12 01:25:40;;;;;;;4.45;1.02;;;;;;;3.90;71.57;102314.56;5051078;28;20449;-48
2021/04/12 01:28:44;;;;;;;4.03;0.60;;;;;;;3.86;71.36;102310.53;5045792;28;20063;-49
2021/04/12 01:31:51;;;;;;;3.22;0.35;;;;;;;3.84;71.19;102323.72;5038303;28;20056;-48
2021/04/12 01:34:56;;;;;;;3.83;0.63;;;;;;;3.83;71.24;102316.50;5038011;28;20061;-47
2021/04/12 01:37:42;;;;;;;2.50;0.52;;;;;;;3.83;71.32;102325.63;5034521;28;20052;-49
2021/04/12 01:40:28;;;;;;;3.20;0.57;;;;;;;3.89;71.18;102323.91;5045315;28;20103;-49
2021/04/12 01:43:11;;;;;;;6.22;0.50;;;;;;;3.93;70.83;102333.47;5030013;28;20049;-49
2021/04/12 01:45:46;;;;;;;3.50;0.40;;;;;;;3.96;70.57;102333.03;5050259;28;20091;-51
2021/04/12 01:48:31;;;;;;;2.97;0.50;;;;;;;4.00;70.62;102337.00;5051264;28;20106;-48
2021/04/12 01:51:21;;;;;;;4.30;0.43;;;;;;;4.03;70.79;102336.59;5050887;28;20110;-52
2021/04/12 01:54:25;;;;;;;8.90;0.60;;;;;;;4.01;70.51;102331.28;5047814;28;20454;-50
2021/04/12 01:57:17;;;;;;;5.70;1.00;;;;;;;3.99;70.34;102332.59;5045394;28;20049;-49
2021/04/12 01:59:56;;;;;;;5.72;0.60;;;;;;;3.94;70.65;102333.25;5009508;28;20406;-46
2021/04/12 02:02:45;;;;;;;5.05;0.47;;;;;;;3.94;70.49;102335.16;5048838;28;20044;-50
2021/04/12 02:05:35;;;;;;;3.90;0.60;;;;;;;3.90;70.64;102336.66;5046687;28;20475;-51
2021/04/12 02:08:11;;;;;;;2.00;0.38;;;;;;;3.86;70.65;102336.25;5032300;28;20107;-46
2021/04/12 02:10:49;;;;;;;2.55;0.40;;;;;;;3.86;70.68;102351.97;5043831;28;20198;-50
2021/04/12 02:13:34;;;;;;;6.15;0.45;;;;;;;3.85;70.57;102340.06;5048634;28;20091;-51
2021/04/12 02:16:15;;;;;;;2.58;0.50;;;;;;;3.85;70.22;102355.78;5038696;28;20466;-52
2021/04/12 02:18:58;;;;;;;3.25;0.50;;;;;;;3.84;69.86;102345.81;5051293;28;20049;-49
2021/04/12 02:21:39;;;;;;;3.47;0.50;;;;;;;3.80;69.38;102354.50;5038211;28;20061;-47
2021/04/12 02:24:16;;;;;;;4.47;0.50;;;;;;;3.78;68.94;102351.16;5051713;28;20098;-51
2021/04/12 02:27:03;;;;;;;4.22;0.60;;;;;;;3.79;68.48;102361.13;5039817;28;20513;-46
2021/04/12 02:29:35;;;;;;;5.05;0.70;;;;;;;3.77;67.80;102357.75;5050624;28;20056;-48
2021/04/12 02:32:41;;;;;;;4.43;0.68;;;;;;;3.77;67.29;102360.50;5042805;28;20077;-49
2021/04/12 02:35:21;;;;;;;3.78;0.50;;;;;;;3.72;66.97;102364.97;5035347;28;20049;-46
2021/04/12 02:38:18;;;;;;;3.28;0.50;;;;;;;3.70;66.47;102359.66;5045976;28;20486;-53
2021/04/12 02:41:02;;;;;;;3.85;0.57;;;;;;;3.66;66.89;102360.31;5045914;28;20077;-49
2021/04/12 02:43:50;;;;;;;4.20;0.50;;;;;;;3.63;66.39;102366.25;5037630;28;20392;-46
2021/04/12 02:46:46;;;;;;;4.68;0.60;;;;;;;3.60;66.76;102361.16;5035730;28;20041;-52
2021/04/12 02:49:20;;;;;;;2.35;0.40;;;;;;;3.57;66.84;102365.22;5050136;28;20045;-49
2021/04/12 02:52:01;;;;;;;4.28;0.47;;;;;;;3.56;66.88;102363.53;5046272;28;20045;-51
2021/04/12 02:54:38;;;;;;;3.85;0.60;;;;;;;3.54;66.92;102364.81;5049756;28;20065;-51
2021/04/12 02:57:38;;;;;;;5.63;0.70;;;;;;;3.54;66.83;102360.13;5039827;28;20107;-49
2021/04/12 03:00:27;;;;;;;6.28;0.57;;;;;;;3.53;66.79;102374.16;5030886;28;20083;-45
2021/04/12 03:03:12;;;;;;;5.85;0.60;;;;;;;3.54;66.40;102370.31;5039671;28;20102;-51
2021/04/12 03:06:26;;;;;;;5.03;0.50;;;;;;;3.57;66.82;102367.13;5050292;28;20056;-52
2021/04/12 03:09:11;;;;;;;5.90;0.60;;;;;;;3.54;66.82;102375.84;5013454;28;20084;-49
2021/04/12 03:12:02;;;;;;;5.20;0.70;;;;;;;3.54;66.92;102371.19;5046643;28;20494;-49
2021/04/12 03:14:54;;;;;;;3.58;0.50;;;;;;;3.52;66.00;102376.06;5045600;28;20048;-46
2021/04/12 03:17:47;;;;;;;3.73;0.60;;;;;;;3.51;65.49;102376.28;5046135;28;20452;-47
2021/04/12 03:20:35;;;;;;;3.58;0.40;;;;;;;3.49;64.53;102381.16;5032410;28;20495;-48
2021/04/12 03:23:21;;;;;;;2.17;0.30;;;;;;;3.47;64.61;102376.69;5035096;28;20049;-46
2021/04/12 03:26:00;;;;;;;6.30;0.50;;;;;;;3.46;64.27;102374.16;5031345;28;20045;-46
2021/04/12 03:28:42;;;;;;;1.77;0.40;;;;;;;3.45;64.00;102376.06;5043311;28;20458;-47
2021/04/12 03:31:22;;;;;;;2.70;0.50;;;;;;;3.44;64.25;102379.03;5031228;28;20057;-47
2021/04/12 03:34:16;;;;;;;5.70;0.60;;;;;;;3.43;63.76;102371.81;5043587;28;20049;-47
2021/04/12 03:37:25;;;;;;;4.82;0.70;;;;;;;3.39;63.65;102367.81;5038686;28;20075;-45
2021/04/12 03:39:57;;;;;;;3.92;0.60;;;;;;;3.36;63.54;102369.09;4948089;28;20074;-47
2021/04/12 03:42:44;;;;;;;4.20;0.55;;;;;;;3.36;63.70;102369.09;5034505;28;20530;-49
2021/04/12 03:45:25;;;;;;;8.85;0.88;;;;;;;3.36;63.86;102374.59;5045951;28;20052;-46
2021/04/12 03:48:38;;;;;;;5.70;0.80;;;;;;;3.38;63.58;102374.41;5051114;28;20509;-45
2021/04/12 03:51:31;;;;;;;2.85;0.47;;;;;;;3.37;63.80;102378.22;5051688;28;20133;-49
2021/04/12 03:54:17;;;;;;;7.40;0.77;;;;;;;3.40;64.10;102381.38;5049621;28;20159;-49
2021/04/12 03:57:24;;;;;;;6.20;0.88;;;;;;;3.49;66.78;102390.28;5034250;28;20088;-47
2021/04/12 04:00:13;;;;;;;3.58;0.73;;;;;;;3.50;68.21;102397.50;5049599;28;20473;-48
2021/04/12 04:02:46;;;;;;;6.00;0.65;;;;;;;3.37;69.81;102403.91;5035434;28;20057;-47
2021/04/12 04:05:49;;;;;;;5.63;0.77;;;;;;;3.28;70.32;102413.44;5050583;28;20557;-48
2021/04/12 04:08:29;;;;;;;2.88;0.45;;;;;;;3.14;70.51;102403.47;5050063;28;20115;-47
2021/04/12 04:11:36;;;;;;;1.63;0.35;;;;;;;3.07;71.42;102410.88;5043980;28;20047;-51
2021/04/12 04:14:27;;;;;;;3.97;0.45;;;;;;;2.98;71.97;102402.00;5040444;28;20041;-48
2021/04/12 04:17:23;;;;;;;1.00;0.30;;;;;;;2.92;72.03;102408.34;5037705;28;20079;-46
2021/04/12 04:20:14;;;;;;;0.93;0.30;;;;;;;2.86;72.63;102408.31;5039256;28;20080;-48
2021/04/12 04:22:58;;;;;;;2.85;0.40;;;;;;;2.80;72.97;102401.72;5034430;28;20045;-47
2021/04/12 04:25:50;;;;;;;2.30;0.30;;;;;;;2.79;72.86;102400.06;5046483;28;20057;-49
2021/04/12 04:28:36;;;;;;;1.23;0.32;;;;;;;2.75;73.45;102402.38;5032586;28;20065;-45
2021/04/12 04:31:42;;;;;;;2.72;0.50;;;;;;;2.72;73.42;102405.56;5050835;28;20049;-50
2021/04/12 04:34:32;;;;;;;1.95;0.50;;;;;;;2.66;73.85;102411.06;5049350;28;20077;-50
2021/04/12 04:37:33;;;;;;;4.07;0.60;;;;;;;2.58;74.04;102405.75;5045569;28;20048;-46
2021/04/12 04:40:12;;;;;;;3.50;0.80;;;;;;;2.51;74.15;102418.66;5046699;28;20095;-53
2021/04/12 04:42:55;;;;;;;2.95;0.77;;;;;;;2.46;74.54;102410.16;5037876;28;20045;-49
2021/04/12 04:45:34;;;;;;;3.55;0.63;;;;;;;2.40;74.29;102409.06;5037515;28;20490;-52
2021/04/12 04:48:33;;;;;;;1.73;0.43;;;;;;;2.36;74.40;102414.16;5050827;28;20049;-49
2021/04/12 04:51:25;;;;;;;3.85;0.65;;;;;;;2.34;75.13;102416.28;5019694;28;20110;-50
2021/04/12 04:54:11;;;;;;;6.28;0.68;;;;;;;2.36;74.52;102421.59;5032518;28;20064;-48
2021/04/12 04:56:53;;;;;;;5.07;0.63;;;;;;;2.45;74.23;102416.72;5040009;28;20053;-50
2021/04/12 04:59:38;;;;;;;5.37;0.80;;;;;;;2.56;73.34;102422.50;5051759;28;20091;-46
2021/04/12 05:02:44;;;;;;;5.55;0.73;;;;;;;2.69;73.04;102424.41;5050027;28;20061;-48
2021/04/12 05:05:24;;;;;;;5.03;0.60;;;;;;;2.74;72.06;102431.00;5048805;28;20103;-49
2021/04/12 05:08:41;;;;;;;5.75;1.00;;;;;;;2.82;71.20;102431.84;5043261;28;20118;-50
2021/04/12 05:11:47;;;;;;;5.60;0.90;;;;;;;2.83;70.68;102426.13;5045090;28;20069;-46
2021/04/12 05:14:37;;;;;;;;;;;;;;;2.81;69.29;102425.50;5033540;28;20075;-47
2021/04/12 05:17:32;;;;;;;1.60;0.40;;;;;;;2.91;69.31;102427.84;5046186;28;19920;-52
2021/04/12 05:20:19;;;;;;;4.75;0.65;;;;;;;3.00;69.38;102429.31;5033064;28;20060;-50
2021/04/12 05:23:03;;;;;;;5.78;1.13;;;;;;;3.11;68.95;102437.84;5049062;28;20049;-52
2021/04/12 05:26:00;;;;;;;5.65;0.65;;;;;;;3.25;68.68;102444.19;5051391;28;20053;-54
2021/04/12 05:28:48;;;;;;;3.08;0.50;;;;;;;3.37;68.39;102445.28;5036874;28;20052;-50
2021/04/12 05:31:46;;;;;;;5.45;0.70;;;;;;;3.46;68.49;102452.25;5049518;28;20522;-52
2021/04/12 05:34:39;;;;;;;6.65;1.02;;;;;;;3.56;68.87;102446.34;5047695;28;20047;-47
2021/04/12 05:37:26;;;;;;;3.35;0.70;;;;;;;3.62;69.08;102461.16;5042708;28;20045;-48
2021/04/12 05:40:09;;;;;;;2.85;0.52;;;;;;;3.67;69.25;102465.00;5051531;28;20045;-49
2021/04/12 05:42:49;;;;;;;;;;;;;;;3.66;70.13;102459.69;5039636;28;20396;-53
2021/04/12 05:45:33;;;;;;;5.53;0.80;;;;;;;3.65;69.94;102464.34;5032590;28;19929;-52
2021/04/12 05:48:29;;;;;;;6.35;0.90;;;;;;;3.69;70.28;102473.91;5045506;28;20099;-56
2021/04/12 05:51:09;;;;;;;6.53;0.95;;;;;;;3.62;71.75;102475.81;5032290;28;20060;-49
2021/04/12 05:53:52;;;;;;;9.07;0.75;;;;;;;3.52;72.05;102483.69;5041074;28;20057;-54
2021/04/12 05:56:31;;;;;;;5.30;1.23;;;;;;;3.46;72.34;102499.19;5051083;28;20049;-53
2021/04/12 05:59:16;;;;;;;4.28;0.70;;;;;;;3.35;72.68;102521.91;5047288;28;20048;-50
2021/04/12 06:02:13;;;;;;;4.20;0.63;;;;;;;3.18;73.30;102536.31;5050355;28;20036;-52
2021/04/12 06:04:51;;;;;;;3.25;0.60;;;;;;;3.03;73.65;102542.81;5041319;28;20457;-53
2021/04/12 06:07:41;;;;;;;4.82;0.80;;;;;;;2.92;74.11;102557.22;5050114;28;20464;-52
2021/04/12 06:10:52;;;;;;;3.72;0.40;;;;;;;2.83;74.54;102555.69;5043700;28;20110;-49
2021/04/12 06:13:52;;;;;;;2.95;0.50;;;;;;;2.70;74.88;102561.16;5044280;28;20059;-51
2021/04/12 06:16:58;;;;;;;2.33;0.50;;;;;;;2.58;75.17;102555.41;5031996;28;20487;-49
2021/04/12 06:19:56;;;;;;;3.78;0.55;;;;;;;2.50;75.38;102554.72;5038379;28;20045;-46
2021/04/12 06:23:05;;;;;;;4.15;0.60;;;;;;;2.45;75.51;102546.19;5049683;28;20131;-54
2021/04/12 06:25:52;;;;;;;2.97;0.60;;;;;;;2.39;75.96;102543.22;5029662;28;20078;-49
2021/04/12 06:28:44;;;;;;;4.47;0.70;;;;;;;2.34;76.29;102533.88;5034892;28;20045;-50
2021/04/12 06:31:59;;;;;;;3.00;0.63;;;;;;;2.27;76.69;102532.97;5036355;28;20105;-49
2021/04/12 06:34:46;;;;;;;9.27;0.80;;;;;;;2.18;76.83;102534.22;5021895;28;20053;-49
2021/04/12 06:37:24;;;;;;;5.30;0.70;;;;;;;2.16;76.90;102542.66;5041399;28;20061;-48
2021/04/12 06:40:26;;;;;;;5.03;0.95;;;;;;;2.17;77.65;102538.88;5037784;28;20111;-52
2021/04/12 06:43:29;;;;;;;3.42;0.70;;;;;;;2.13;77.81;102542.22;5050509;28;20457;-52
2021/04/12 06:46:24;;;;;;;5.50;1.10;;;;;;;2.11;78.16;102544.31;5050555;28;20049;-50
2021/04/12 06:49:31;;;;;;;3.45;0.82;;;;;;;2.17;77.99;102536.09;5046558;28;20052;-51
2021/04/12 06:52:37;;;;;;;6.35;0.90;;;;;;;2.44;78.75;102545.34;5026779;28;20049;-52
2021/04/12 06:55:18;;;;;;;4.07;0.85;;;;;;;2.83;79.40;102525.38;4957866;28;20145;-51
2021/04/12 06:58:19;;;;;;;4.03;0.90;;;;;;;3.34;79.56;102533.13;5029461;28;20403;-50
2021/04/12 07:01:22;;;;;;;6.07;0.90;;;;;;;3.61;78.79;102536.75;5043326;28;20046;-50
2021/04/12 07:04:35;;;;;;;3.58;0.77;;;;;;;3.66;78.23;102540.56;5032597;28;20049;-49
2021/04/12 07:07:40;;;;;;;6.55;0.80;;;;;;;3.60;77.92;102533.13;4976585;28;20062;-51
2021/04/12 07:10:30;;;;;;;5.78;1.00;;;;;;;3.57;77.80;102535.50;5035006;28;20140;-49
2021/04/12 07:13:40;;;;;;;11.00;1.20;;;;;;;3.72;77.79;102539.75;5048491;28;20037;-52
2021/04/12 07:16:47;;;;;;;7.13;1.00;;;;;;;3.99;77.69;102543.34;5012069;28;20073;-50
2021/04/12 07:20:10;;;;;;;7.75;0.90;;;;;;;4.41;76.75;102543.88;5049782;28;20137;-50
2021/04/12 07:23:20;;;;;;;6.25;0.70;;;;;;;4.73;75.42;102548.44;5043559;28;20136;-47
2021/04/12 07:26:17;;;;;;;3.15;0.68;;;;;;;5.03;75.02;102556.16;5041241;28;20041;-47
2021/04/12 07:29:14;;;;;;;5.05;0.80;;;;;;;5.35;74.40;102551.53;5028863;28;20046;-47
2021/04/12 07:32:03;;;;;;;5.45;0.70;;;;;;;5.69;73.51;102545.50;5042860;28;20362;-49
2021/04/12 07:35:16;;;;;;;4.97;0.70;;;;;;;6.15;72.91;102558.13;5029713;28;20049;-52
2021/04/12 07:38:22;;;;;;;4.00;1.13;;;;;;;6.25;70.38;102568.69;5038993;28;20480;-47
2021/04/12 07:41:41;;;;;;;3.15;0.43;;;;;;;6.03;69.31;102571.88;5044242;28;20132;-48
2021/04/12 07:45:01;;;;;;;6.70;0.93;;;;;;;5.76;69.98;102565.69;5050552;28;20482;-47
2021/04/12 07:48:11;;;;;;;6.57;0.90;;;;;;;5.53;70.49;102559.91;5042683;28;20083;-52
2021/04/12 07:51:21;;;;;;;7.43;0.82;;;;;;;5.32;70.84;102554.72;5034322;28;20107;-48
2021/04/12 07:54:33;;;;;;;5.90;0.90;;;;;;;5.08;71.74;102564.66;5044659;28;20052;-52
2021/04/12 07:57:38;;;;;;;6.40;1.08;;;;;;;4.84;73.47;102572.63;5030590;28;20482;-53
2021/04/12 08:00:34;;;;;;;7.53;1.00;;;;;;;4.68;74.37;102580.56;5030800;28;20114;-51
2021/04/12 08:03:29;;;;;;;5.15;0.90;;;;;;;4.53;74.77;102589.13;5045075;28;20057;-50
2021/04/12 08:06:25;;;;;;;5.95;0.77;;;;;;;4.37;75.39;102593.22;5032002;28;20057;-54
2021/04/12 08:09:16;;;;;;;4.68;0.88;;;;;;;4.19;75.64;102594.94;5040563;28;20068;-50
2021/04/12 08:12:21;;;;;;;2.63;0.50;;;;;;;4.15;76.33;102597.28;5045713;28;20406;-53
2021/04/12 08:15:38;;;;;;;5.38;0.70;;;;;;;4.35;76.71;102600.03;4987298;28;20049;-50
2021/04/12 08:18:48;;;;;;;6.53;0.73;;;;;;;4.89;76.80;102601.56;4955466;28;20081;-52
2021/04/12 08:21:38;;;;;;;6.70;0.80;;;;;;;5.59;75.96;102595.03;5029872;28;20041;-50
2021/04/12 08:24:40;;;;;;;5.90;0.75;;;;;;;5.97;73.76;102602.44;5052783;28;20055;-51
2021/04/12 08:27:44;;;;;;;5.13;1.10;;;;;;;6.67;72.93;102594.69;5015936;28;20052;-50
2021/04/12 08:30:39;;;;;;;4.70;0.73;;;;;;;7.45;70.28;102601.13;5038708;28;20119;-50
2021/04/12 08:33:44;;;;;;;3.80;0.80;;;;;;;8.13;68.03;102597.06;5038709;28;20426;-50
2021/04/12 08:36:59;;;;;;;4.40;0.90;;;;;;;8.74;65.89;102609.66;5033874;28;20057;-51
2021/04/12 08:40:08;;;;;;;4.40;0.68;;;;;;;9.14;63.79;102616.13;5050698;28;20045;-49
2021/04/12 08:43:13;;;;;;;6.45;0.80;;;;;;;9.50;63.47;102614.03;5048661;28;20057;-53
2021/04/12 08:46:19;;;;;;;2.60;0.40;;;;;;;9.83;61.55;102625.25;5020118;28;20049;-48
2021/04/12 08:49:05;;;;;;;3.63;0.50;;;;;;;9.96;61.21;102622.16;5020397;28;20057;-51
2021/04/12 08:52:17;;;;;;;4.50;0.77;;;;;;;9.93;59.87;102617.06;5032997;28;20057;-51
2021/04/12 08:55:07;;;;;;;3.58;0.65;;;;;;;9.95;60.19;102620.47;5047930;28;20142;-50
2021/04/12 08:58:12;;;;;;;3.92;0.65;;;;;;;9.97;59.11;102635.00;5025039;28;20095;-56
2021/04/12 09:01:23;;;;;;;4.68;0.80;;;;;;;9.74;57.64;102634.28;5043558;28;20049;-55
2021/04/12 09:04:30;;;;;;;4.95;0.80;;;;;;;9.18;58.55;102641.53;5045477;28;20056;-52
2021/04/12 09:07:26;;;;;;;4.95;0.70;;;;;;;8.78;59.16;102634.00;5032809;28;20083;-56
2021/04/12 09:10:43;;;;;;;2.58;0.60;;;;;;;9.12;58.21;102632.22;5046294;28;20049;-52
2021/04/12 09:13:44;;;;;;;5.07;0.70;;;;;;;9.42;58.73;102631.13;5041702;28;20068;-54
2021/04/12 09:16:19;;;;;;;7.57;0.75;;;;;;;9.87;59.58;102632.00;5032322;28;20176;-55
2021/04/12 09:19:30;;;;;;;2.75;0.50;;;;;;;10.14;55.55;102628.59;5037607;28;20402;-53
2021/04/12 09:22:48;;;;;;;6.60;1.00;;;;;;;9.98;55.81;102635.84;4986691;28;20141;-50
2021/04/12 09:25:47;;;;;;;4.50;0.70;;;;;;;9.54;57.33;102635.59;4986067;28;20104;-55
2021/04/12 09:28:28;;;;;;;4.10;0.60;;;;;;;9.29;58.40;102633.13;5032573;28;20121;-52
2021/04/12 09:31:21;;;;;;;5.47;0.68;;;;;;;9.57;58.33;102649.03;5047767;28;20059;-55
2021/04/12 09:34:12;;;;;;;6.68;0.82;;;;;;;9.82;56.95;102648.66;5032464;28;20073;-50
2021/04/12 09:37:11;;;;;;;5.95;0.90;;;;;;;9.64;55.81;102657.22;5041920;28;20433;-52
2021/04/12 09:39:55;;;;;;;2.03;0.45;;;;;;;9.27;56.67;102649.25;5047600;28;20095;-47
2021/04/12 09:42:51;;;;;;;3.35;0.60;;;;;;;9.23;57.30;102650.81;5038531;28;20088;-52
2021/04/12 09:45:55;;;;;;;3.97;0.60;;;;;;;9.79;56.63;102654.72;5037100;28;20048;-47
2021/04/12 09:49:00;;;;;;;3.17;0.65;;;;;;;9.88;55.95;102658.81;5032265;28;20116;-49
2021/04/12 09:51:51;;;;;;;4.93;0.80;;;;;;;9.44;55.62;102662.38;5039730;28;20064;-47
2021/04/12 09:54:44;;;;;;;6.78;0.55;;;;;;;9.46;56.18;102657.41;5050822;28;20139;-49
2021/04/12 09:57:58;;;;;;;4.45;0.88;;;;;;;9.62;55.23;102656.63;5051036;28;20060;-46
2021/04/12 10:01:06;;;;;;;5.57;0.70;;;;;;;9.85;54.50;102659.31;5046992;28;20057;-52
2021/04/12 10:03:57;;;;;;;6.95;0.90;;;;;;;10.01;54.91;102666.84;5032173;28;20049;-48
2021/04/12 10:06:57;;;;;;;5.00;0.82;;;;;;;10.11;54.43;102663.41;5009078;28;20053;-49
2021/04/12 10:09:59;;;;;;;5.43;0.73;;;;;;;10.72;54.33;102667.22;5031042;28;20099;-45
2021/04/12 10:13:02;;;;;;;5.95;0.88;;;;;;;11.20;52.66;102682.41;5050610;28;20154;-50
2021/04/12 10:15:38;;;;;;;6.35;0.80;;;;;;;11.11;52.96;102676.44;5047805;28;20057;-51
2021/04/12 10:18:21;;;;;;;5.45;0.90;;;;;;;11.02;52.97;102680.78;5040502;28;20130;-50
2021/04/12 10:20:53;;;;;;;5.13;1.15;;;;;;;10.64;53.41;102679.66;5049282;28;20091;-51
2021/04/12 10:23:23;;;;;;;4.28;0.88;;;;;;;10.44;54.24;102689.66;5041327;28;20099;-49
2021/04/12 10:26:01;;;;;;;7.50;0.90;;;;;;;10.45;54.77;102685.75;5047544;28;20099;-51
2021/04/12 10:28:31;;;;;;;5.40;0.70;;;;;;;10.70;54.88;102688.97;5041538;28;20045;-52
2021/04/12 10:31:10;;;;;;;3.83;0.77;;;;;;;11.18;54.55;102691.09;5049157;28;20056;-50
2021/04/12 10:33:43;;;;;;;3.90;0.68;;;;;;;11.50;53.31;102690.38;5041395;28;20115;-43
2021/04/12 10:36:24;;;;;;;2.70;0.57;;;;;;;11.33;52.14;102690.44;5048657;28;20079;-44
2021/04/12 10:39:00;;;;;;;2.50;0.73;;;;;;;11.27;52.84;102692.31;5041104;28;20532;-45
2021/04/12 10:41:32;;;;;;;4.47;0.70;;;;;;;11.44;51.98;102694.19;5045502;28;20049;-52
2021/04/12 10:44:22;;;;;;;2.38;0.55;;;;;;;11.48;51.36;102695.38;5042295;28;20049;-46
2021/04/12 10:46:57;;;;;;;3.25;0.50;;;;;;;11.27;50.98;102702.66;5045113;28;20065;-47
2021/04/12 10:49:37;;;;;;;1.42;0.40;;;;;;;10.74;51.63;102708.88;5051457;28;20059;-47
2021/04/12 10:52:15;;;;;;;2.47;0.50;;;;;;;10.43;53.03;102699.97;5045729;28;20046;-46
2021/04/12 10:55:02;;;;;;;3.22;0.50;;;;;;;10.55;53.40;102697.13;5038399;28;20065;-45
2021/04/12 10:57:35;;;;;;;4.38;0.77;;;;;;;10.44;53.85;102703.59;5035579;28;20057;-46
2021/04/12 11:00:20;;;;;;;4.68;0.75;;;;;;;10.54;54.24;102699.06;5044848;28;20049;-48
2021/04/12 11:03:04;;;;;;;4.35;0.63;;;;;;;10.99;54.46;102703.66;5046116;28;20045;-46
2021/04/12 11:05:33;;;;;;;2.72;0.40;;;;;;;11.32;53.65;102709.16;5033732;28;20067;-45
2021/04/12 11:08:15;;;;;;;3.47;0.50;;;;;;;11.68;53.00;102713.25;5037022;28;20110;-46
2021/04/12 11:10:52;;;;;;;2.40;0.57;;;;;;;11.67;52.16;102719.09;5050693;28;20080;-46
2021/04/12 11:13:32;;;;;;;3.90;0.60;;;;;;;11.36;50.98;102720.66;5040253;28;20076;-48
2021/04/12 11:16:11;;;;;;;2.95;0.88;;;;;;;11.07;51.15;102722.78;5048776;28;20045;-47
2021/04/12 11:18:56;;;;;;;2.60;0.80;;;;;;;10.86;51.34;102720.78;5040863;28;20057;-46
2021/04/12 11:21:28;;;;;;;3.83;0.52;;;;;;;10.47;52.22;102715.13;5050017;28;20049;-49
2021/04/12 11:24:04;;;;;;;4.50;0.60;;;;;;;10.14;52.89;102723.44;5045761;28;20060;-48
2021/04/12 11:27:10;;;;;;;4.47;0.60;;;;;;;10.11;52.55;102723.94;5031019;28;20175;-46
2021/04/12 11:29:41;;;;;;;3.92;0.60;;;;;;;9.95;53.39;102731.16;5037519;28;20111;-48
2021/04/12 11:32:16;;;;;;;4.97;0.70;;;;;;;10.05;54.26;102719.34;5050954;28;20053;-49
2021/04/12 11:34:46;;;;;;;4.78;0.60;;;;;;;10.28;54.03;102730.41;5043392;28;20060;-46
2021/04/12 11:37:23;;;;;;;3.47;0.50;;;;;;;10.47;52.57;102733.81;5039887;28;20063;-47
2021/04/12 11:39:55;;;;;;;3.28;0.50;;;;;;;10.51;51.79;102729.41;5044498;28;20095;-53
2021/04/12 11:42:28;;;;;;;3.42;0.57;;;;;;;10.30;51.30;102733.78;5030237;28;20080;-47
2021/04/12 11:45:03;;;;;;;3.22;0.40;;;;;;;10.15;51.47;102731.56;5035466;28;20057;-45
2021/04/12 11:47:51;;;;;;;4.57;1.05;;;;;;;10.41;51.10;102738.44;5050081;28;20053;-50
2021/04/12 11:50:27;;;;;;;3.95;0.60;;;;;;;10.26;51.86;102732.59;5043378;28;20049;-46
2021/04/12 11:53:03;;;;;;;3.45;0.68;;;;;;;10.21;52.48;102730.56;5030169;28;20130;-48
2021/04/12 11:55:34;;;;;;;3.13;0.70;;;;;;;10.12;52.65;102736.78;5037690;28;20454;-48
2021/04/12 11:58:10;;;;;;;3.75;0.70;;;;;;;9.98;52.93;102730.69;5054425;28;20049;-46
2021/04/12 12:00:48;;;;;;;2.35;0.57;;;;;;;10.08;53.42;102736.44;5047468;28;20037;-47
2021/04/12 12:03:30;;;;;;;4.10;0.60;;;;;;;10.38;53.61;102738.97;5035886;28;20102;-49
2021/04/12 12:06:09;;;;;;;4.10;0.70;;;;;;;10.62;53.30;102734.06;5056885;28;20077;-46
2021/04/12 12:08:49;;;;;;;1.95;0.50;;;;;;;10.90;52.65;102738.72;5057210;28;20045;-47
2021/04/12 12:11:23;;;;;;;4.47;0.90;;;;;;;10.83;52.47;102740.81;5055717;28;20053;-47
2021/04/12 12:13:55;;;;;;;2.45;0.63;;;;;;;10.70;52.53;102740.09;5060510;28;20056;-47
2021/04/12 12:16:29;;;;;;;4.82;1.02;;;;;;;10.53;52.79;102739.25;5060672;28;20041;-44
2021/04/12 12:19:02;;;;;;;5.45;0.65;;;;;;;10.33;52.35;102753.69;5060976;28;20114;-49
2021/04/12 12:21:34;;;;;;;2.95;0.50;;;;;;;10.37;51.86;102754.03;5055334;28;20114;-46
2021/04/12 12:24:12;;;;;;;5.53;0.70;;;;;;;10.48;51.18;102755.88;5052836;28;20567;-45
2021/04/12 12:26:45;;;;;;;4.07;0.55;;;;;;;10.34;50.93;102760.09;5059290;28;20110;-47
2021/04/12 12:29:19;;;;;;;5.32;1.08;;;;;;;10.13;51.09;102760.78;5062489;28;20051;-44
2021/04/12 12:32:04;;;;;;;5.85;0.60;;;;;;;9.87;51.10;102765.84;5058681;28;20413;-46
2021/04/12 12:34:44;;;;;;;4.25;0.57;;;;;;;9.68;52.04;102769.94;5056725;28;20451;-49
2021/04/12 12:37:20;;;;;;;4.72;0.60;;;;;;;9.67;52.81;102768.22;5051808;28;20055;-43
2021/04/12 12:39:50;;;;;;;5.13;0.60;;;;;;;9.73;52.81;102777.56;5057497;28;20123;-48
2021/04/12 12:42:24;;;;;;;4.57;0.80;;;;;;;9.79;53.03;102776.56;5052602;28;20048;-47
2021/04/12 12:44:54;;;;;;;3.47;0.70;;;;;;;9.88;52.69;102786.22;5060810;28;20509;-46
2021/04/12 12:47:24;;;;;;;3.92;0.60;;;;;;;9.76;52.52;102779.84;5061100;28;20051;-46
2021/04/12 12:49:55;;;;;;;5.97;0.82;;;;;;;9.72;53.18;102785.06;5051370;28;20047;-42
2021/04/12 12:52:29;;;;;;;3.70;0.88;;;;;;;9.79;53.13;102779.38;5053486;28;20409;-46
2021/04/12 12:55:00;;;;;;;8.40;0.75;;;;;;;9.89;52.65;102785.97;5062564;28;20131;-44
2021/04/12 12:57:31;;;;;;;4.80;1.10;;;;;;;10.00;52.26;102787.03;5058671;28;20086;-44
2021/04/12 13:00:08;;;;;;;5.82;0.75;;;;;;;10.08;51.83;102785.78;5062245;28;20040;-45
2021/04/12 13:02:38;;;;;;;5.85;0.77;;;;;;;10.07;51.36;102795.25;5053759;28;20053;-54
2021/04/12 13:05:14;;;;;;;6.63;0.85;;;;;;;10.05;50.95;102797.44;5055442;28;20513;-48
2021/04/12 13:07:42;;;;;;;3.72;0.50;;;;;;;9.96;51.71;102805.38;5052510;28;20049;-50
2021/04/12 13:10:17;;;;;;;7.07;1.10;;;;;;;9.86;50.96;102806.00;5060035;28;20432;-48
2021/04/12 13:12:52;;;;;;;2.80;0.70;;;;;;;9.69;51.00;102802.28;5057793;28;20056;-45